sensor_id;sensor_type;location;lat;lon;timestamp;temperature;humidity
9772;DHT22;4925;52.588;13.370;2023-08-12T00:01:50;20.80;1.00
9772;DHT22;4925;52.588;13.370;2023-08-12T00:04:15;20.80;1.00
9772;DHT22;4925;52.588;13.370;2023-08-12T00:06:42;20.80;1.00
9772;DHT22;4925;52.588;13.370;2023-08-12T00:09:08;20.70;1.00
9772;DHT22;4925;52.588;13.370;2023-08-12T00:11:35;20.80;1.00
9772;DHT22;4925;52.588;13.370;2023-08-12T00:14:01;20.70;1.00
9772;DHT22;4925;52.588;13.370;2023-08-12T00:16:27;20.70;1.00
9772;DHT22;4925;52.588;13.370;2023-08-12T00:18:52;20.70;1.00
9772;DHT22;4925;52.588;13.370;2023-08-12T00:21:18;20.70;1.00
9772;DHT22;4925;52.588;13.370;2023-08-12T00:23:43;20.70;1.00
9772;DHT22;4925;52.588;13.370;2023-08-12T00:26:10;20.70;1.00
9772;DHT22;4925;52.588;13.370;2023-08-12T00:28:36;20.60;1.00
9772;DHT22;4925;52.588;13.370;2023-08-12T00:31:02;20.60;1.00
9772;DHT22;4925;52.588;13.370;2023-08-12T00:33:28;20.60;1.00
9772;DHT22;4925;52.588;13.370;2023-08-12T00:35:54;20.60;1.00
9772;DHT22;4925;52.588;13.370;2023-08-12T00:38:20;20.60;1.00
9772;DHT22;4925;52.588;13.370;2023-08-12T00:40:45;20.60;1.00
9772;DHT22;4925;52.588;13.370;2023-08-12T00:43:11;20.60;1.00
9772;DHT22;4925;52.588;13.370;2023-08-12T00:45:37;20.50;1.00
9772;DHT22;4925;52.588;13.370;2023-08-12T00:48:03;20.50;1.00
9772;DHT22;4925;52.588;13.370;2023-08-12T00:50:30;20.50;1.00
9772;DHT22;4925;52.588;13.370;2023-08-12T00:52:56;20.50;1.00
9772;DHT22;4925;52.588;13.370;2023-08-12T00:55:22;20.50;1.00
9772;DHT22;4925;52.588;13.370;2023-08-12T00:57:48;20.50;1.00
9772;DHT22;4925;52.588;13.370;2023-08-12T01:00:15;20.50;1.00
9772;DHT22;4925;52.588;13.370;2023-08-12T01:02:44;20.40;1.00
9772;DHT22;4925;52.588;13.370;2023-08-12T01:05:13;20.50;1.00
9772;DHT22;4925;52.588;13.370;2023-08-12T01:07:39;20.40;1.00
9772;DHT22;4925;52.588;13.370;2023-08-12T01:10:05;20.40;1.00
9772;DHT22;4925;52.588;13.370;2023-08-12T01:12:38;20.40;1.00
9772;DHT22;4925;52.588;13.370;2023-08-12T01:15:16;20.40;1.00
9772;DHT22;4925;52.588;13.370;2023-08-12T01:17:43;20.40;1.00
9772;DHT22;4925;52.588;13.370;2023-08-12T01:20:10;20.40;1.00
9772;DHT22;4925;52.588;13.370;2023-08-12T01:22:40;20.50;1.00
9772;DHT22;4925;52.588;13.370;2023-08-12T01:25:09;20.40;1.00
9772;DHT22;4925;52.588;13.370;2023-08-12T01:27:36;20.40;1.00
9772;DHT22;4925;52.588;13.370;2023-08-12T01:30:03;20.40;1.00
9772;DHT22;4925;52.588;13.370;2023-08-12T01:32:41;20.40;1.00
9772;DHT22;4925;52.588;13.370;2023-08-12T01:35:19;20.40;1.00
9772;DHT22;4925;52.588;13.370;2023-08-12T01:37:48;20.40;1.00
9772;DHT22;4925;52.588;13.370;2023-08-12T01:40:16;20.40;1.00
9772;DHT22;4925;52.588;13.370;2023-08-12T01:42:45;20.40;1.00
9772;DHT22;4925;52.588;13.370;2023-08-12T01:45:11;20.30;1.00
9772;DHT22;4925;52.588;13.370;2023-08-12T01:47:36;20.30;1.00
9772;DHT22;4925;52.588;13.370;2023-08-12T01:50:02;20.30;1.00
9772;DHT22;4925;52.588;13.370;2023-08-12T01:52:28;20.30;1.00
9772;DHT22;4925;52.588;13.370;2023-08-12T01:54:54;20.30;1.00
9772;DHT22;4925;52.588;13.370;2023-08-12T01:57:20;20.30;1.00
9772;DHT22;4925;52.588;13.370;2023-08-12T01:59:45;20.30;1.00
9772;DHT22;4925;52.588;13.370;2023-08-12T02:02:12;20.30;1.00
9772;DHT22;4925;52.588;13.370;2023-08-12T02:04:39;20.30;1.00
9772;DHT22;4925;52.588;13.370;2023-08-12T02:07:05;20.30;1.00
9772;DHT22;4925;52.588;13.370;2023-08-12T02:09:30;20.30;1.00
9772;DHT22;4925;52.588;13.370;2023-08-12T02:11:56;20.30;1.00
9772;DHT22;4925;52.588;13.370;2023-08-12T02:14:22;20.30;1.00
9772;DHT22;4925;52.588;13.370;2023-08-12T02:16:47;20.30;1.00
9772;DHT22;4925;52.588;13.370;2023-08-12T02:19:13;20.30;1.00
9772;DHT22;4925;52.588;13.370;2023-08-12T02:21:39;20.30;1.00
9772;DHT22;4925;52.588;13.370;2023-08-12T02:24:05;20.30;1.00
9772;DHT22;4925;52.588;13.370;2023-08-12T02:26:31;20.30;1.00
9772;DHT22;4925;52.588;13.370;2023-08-12T02:28:56;20.30;1.00
9772;DHT22;4925;52.588;13.370;2023-08-12T02:31:22;20.30;1.00
9772;DHT22;4925;52.588;13.370;2023-08-12T02:33:48;20.30;1.00
9772;DHT22;4925;52.588;13.370;2023-08-12T02:36:15;20.20;1.00
9772;DHT22;4925;52.588;13.370;2023-08-12T02:38:40;20.30;1.00
9772;DHT22;4925;52.588;13.370;2023-08-12T02:41:06;20.30;1.00
9772;DHT22;4925;52.588;13.370;2023-08-12T02:43:32;20.30;1.00
9772;DHT22;4925;52.588;13.370;2023-08-12T02:45:57;20.30;1.00
9772;DHT22;4925;52.588;13.370;2023-08-12T02:48:23;20.40;1.00
9772;DHT22;4925;52.588;13.370;2023-08-12T02:50:48;20.30;1.00
9772;DHT22;4925;52.588;13.370;2023-08-12T02:53:15;20.40;1.00
9772;DHT22;4925;52.588;13.370;2023-08-12T02:55:41;20.30;1.00
9772;DHT22;4925;52.588;13.370;2023-08-12T02:58:06;20.40;1.00
9772;DHT22;4925;52.588;13.370;2023-08-12T03:00:32;20.40;1.00
9772;DHT22;4925;52.588;13.370;2023-08-12T03:02:58;20.40;1.00
9772;DHT22;4925;52.588;13.370;2023-08-12T03:05:23;20.40;1.00
9772;DHT22;4925;52.588;13.370;2023-08-12T03:07:49;20.40;1.00
9772;DHT22;4925;52.588;13.370;2023-08-12T03:10:18;20.40;1.00
9772;DHT22;4925;52.588;13.370;2023-08-12T03:12:43;20.40;1.00
9772;DHT22;4925;52.588;13.370;2023-08-12T03:15:10;20.40;1.00
9772;DHT22;4925;52.588;13.370;2023-08-12T03:17:36;20.40;1.00
9772;DHT22;4925;52.588;13.370;2023-08-12T03:20:05;20.40;1.00
9772;DHT22;4925;52.588;13.370;2023-08-12T03:22:31;20.40;1.00
9772;DHT22;4925;52.588;13.370;2023-08-12T03:24:56;20.40;1.00
9772;DHT22;4925;52.588;13.370;2023-08-12T03:27:22;20.40;1.00
9772;DHT22;4925;52.588;13.370;2023-08-12T03:29:48;20.40;1.00
9772;DHT22;4925;52.588;13.370;2023-08-12T03:32:13;20.30;1.00
9772;DHT22;4925;52.588;13.370;2023-08-12T03:34:39;20.30;1.00
9772;DHT22;4925;52.588;13.370;2023-08-12T03:37:05;20.30;1.00
9772;DHT22;4925;52.588;13.370;2023-08-12T03:39:31;20.30;1.00
9772;DHT22;4925;52.588;13.370;2023-08-12T03:41:56;20.30;1.00
9772;DHT22;4925;52.588;13.370;2023-08-12T03:44:22;20.30;1.00
9772;DHT22;4925;52.588;13.370;2023-08-12T03:46:48;20.30;1.00
9772;DHT22;4925;52.588;13.370;2023-08-12T03:49:13;20.30;1.00
9772;DHT22;4925;52.588;13.370;2023-08-12T03:51:39;20.30;1.00
9772;DHT22;4925;52.588;13.370;2023-08-12T03:54:05;20.30;1.00
9772;DHT22;4925;52.588;13.370;2023-08-12T03:56:30;20.30;1.00
9772;DHT22;4925;52.588;13.370;2023-08-12T03:58:56;20.30;1.00
9772;DHT22;4925;52.588;13.370;2023-08-12T04:01:22;20.30;1.00
9772;DHT22;4925;52.588;13.370;2023-08-12T04:03:47;20.30;1.00
9772;DHT22;4925;52.588;13.370;2023-08-12T04:06:13;20.30;1.00
9772;DHT22;4925;52.588;13.370;2023-08-12T04:08:39;20.30;1.00
9772;DHT22;4925;52.588;13.370;2023-08-12T04:11:05;20.30;1.00
9772;DHT22;4925;52.588;13.370;2023-08-12T04:13:30;20.30;1.00
9772;DHT22;4925;52.588;13.370;2023-08-12T04:15:56;20.30;1.00
9772;DHT22;4925;52.588;13.370;2023-08-12T04:18:22;20.40;1.00
9772;DHT22;4925;52.588;13.370;2023-08-12T04:20:52;20.40;1.00
9772;DHT22;4925;52.588;13.370;2023-08-12T04:23:18;20.40;1.00
9772;DHT22;4925;52.588;13.370;2023-08-12T04:25:45;20.40;1.00
9772;DHT22;4925;52.588;13.370;2023-08-12T04:28:12;20.40;1.00
9772;DHT22;4925;52.588;13.370;2023-08-12T04:30:48;20.50;1.00
9772;DHT22;4925;52.588;13.370;2023-08-12T04:33:15;20.50;1.00
9772;DHT22;4925;52.588;13.370;2023-08-12T04:35:42;20.50;1.00
9772;DHT22;4925;52.588;13.370;2023-08-12T04:38:07;20.50;1.00
9772;DHT22;4925;52.588;13.370;2023-08-12T04:40:33;20.60;1.00
9772;DHT22;4925;52.588;13.370;2023-08-12T04:42:59;20.50;1.00
9772;DHT22;4925;52.588;13.370;2023-08-12T04:45:25;20.60;1.00
9772;DHT22;4925;52.588;13.370;2023-08-12T04:47:51;20.60;1.00
9772;DHT22;4925;52.588;13.370;2023-08-12T04:50:17;20.70;1.00
9772;DHT22;4925;52.588;13.370;2023-08-12T04:52:43;20.80;1.00
9772;DHT22;4925;52.588;13.370;2023-08-12T04:55:09;20.60;1.00
9772;DHT22;4925;52.588;13.370;2023-08-12T04:57:38;20.80;1.00
9772;DHT22;4925;52.588;13.370;2023-08-12T05:00:05;20.90;1.00
9772;DHT22;4925;52.588;13.370;2023-08-12T05:02:33;21.00;1.00
9772;DHT22;4925;52.588;13.370;2023-08-12T05:04:59;21.00;1.00
9772;DHT22;4925;52.588;13.370;2023-08-12T05:07:26;21.00;1.00
9772;DHT22;4925;52.588;13.370;2023-08-12T05:09:52;21.00;1.00
9772;DHT22;4925;52.588;13.370;2023-08-12T05:12:17;21.20;1.00
9772;DHT22;4925;52.588;13.370;2023-08-12T05:14:43;21.20;1.00
9772;DHT22;4925;52.588;13.370;2023-08-12T05:17:09;21.30;1.00
9772;DHT22;4925;52.588;13.370;2023-08-12T05:19:34;21.40;1.00
9772;DHT22;4925;52.588;13.370;2023-08-12T05:22:00;21.60;1.00
9772;DHT22;4925;52.588;13.370;2023-08-12T05:24:26;21.80;69.20
9772;DHT22;4925;52.588;13.370;2023-08-12T05:26:51;21.80;99.90
9772;DHT22;4925;52.588;13.370;2023-08-12T05:29:17;21.90;99.90
9772;DHT22;4925;52.588;13.370;2023-08-12T05:31:42;22.10;99.90
9772;DHT22;4925;52.588;13.370;2023-08-12T05:34:08;22.00;99.90
9772;DHT22;4925;52.588;13.370;2023-08-12T05:36:34;22.30;99.90
9772;DHT22;4925;52.588;13.370;2023-08-12T05:39:00;22.30;99.90
9772;DHT22;4925;52.588;13.370;2023-08-12T05:41:26;22.50;99.90
9772;DHT22;4925;52.588;13.370;2023-08-12T05:43:52;22.20;99.90
9772;DHT22;4925;52.588;13.370;2023-08-12T05:46:17;22.40;99.90
9772;DHT22;4925;52.588;13.370;2023-08-12T05:48:43;22.30;99.90
9772;DHT22;4925;52.588;13.370;2023-08-12T05:51:08;22.30;99.90
9772;DHT22;4925;52.588;13.370;2023-08-12T05:53:34;22.40;99.90
9772;DHT22;4925;52.588;13.370;2023-08-12T05:56:00;22.50;99.90
9772;DHT22;4925;52.588;13.370;2023-08-12T05:58:25;22.60;99.90
9772;DHT22;4925;52.588;13.370;2023-08-12T06:00:51;22.80;99.90
9772;DHT22;4925;52.588;13.370;2023-08-12T06:03:17;22.70;99.90
9772;DHT22;4925;52.588;13.370;2023-08-12T06:05:46;22.80;99.90
9772;DHT22;4925;52.588;13.370;2023-08-12T06:08:13;22.90;99.90
9772;DHT22;4925;52.588;13.370;2023-08-12T06:10:39;23.10;99.90
9772;DHT22;4925;52.588;13.370;2023-08-12T06:13:05;23.00;99.90
9772;DHT22;4925;52.588;13.370;2023-08-12T06:15:31;23.00;99.90
9772;DHT22;4925;52.588;13.370;2023-08-12T06:17:57;23.20;99.90
9772;DHT22;4925;52.588;13.370;2023-08-12T06:20:23;23.30;99.90
9772;DHT22;4925;52.588;13.370;2023-08-12T06:22:50;23.30;99.90
9772;DHT22;4925;52.588;13.370;2023-08-12T06:25:16;23.30;99.90
9772;DHT22;4925;52.588;13.370;2023-08-12T06:27:43;23.50;99.90
9772;DHT22;4925;52.588;13.370;2023-08-12T06:30:09;23.50;99.90
9772;DHT22;4925;52.588;13.370;2023-08-12T06:32:35;23.50;99.90
9772;DHT22;4925;52.588;13.370;2023-08-12T06:35:01;23.60;99.90
9772;DHT22;4925;52.588;13.370;2023-08-12T06:37:27;23.80;99.90
9772;DHT22;4925;52.588;13.370;2023-08-12T06:39:52;23.80;99.90
9772;DHT22;4925;52.588;13.370;2023-08-12T06:42:18;24.10;99.90
9772;DHT22;4925;52.588;13.370;2023-08-12T06:44:45;24.10;99.90
9772;DHT22;4925;52.588;13.370;2023-08-12T06:47:11;23.90;99.90
9772;DHT22;4925;52.588;13.370;2023-08-12T06:49:36;24.00;99.90
9772;DHT22;4925;52.588;13.370;2023-08-12T06:52:02;24.10;99.90
9772;DHT22;4925;52.588;13.370;2023-08-12T06:54:28;23.90;99.90
9772;DHT22;4925;52.588;13.370;2023-08-12T06:56:53;24.10;99.90
9772;DHT22;4925;52.588;13.370;2023-08-12T06:59:19;24.20;99.90
9772;DHT22;4925;52.588;13.370;2023-08-12T07:01:44;24.10;99.90
9772;DHT22;4925;52.588;13.370;2023-08-12T07:04:10;24.10;99.90
9772;DHT22;4925;52.588;13.370;2023-08-12T07:06:36;24.30;99.90
9772;DHT22;4925;52.588;13.370;2023-08-12T07:09:02;24.60;99.90
9772;DHT22;4925;52.588;13.370;2023-08-12T07:11:28;24.70;99.90
9772;DHT22;4925;52.588;13.370;2023-08-12T07:13:54;24.90;99.90
9772;DHT22;4925;52.588;13.370;2023-08-12T07:16:19;24.80;99.90
9772;DHT22;4925;52.588;13.370;2023-08-12T07:18:45;24.90;99.90
9772;DHT22;4925;52.588;13.370;2023-08-12T07:21:10;25.10;99.90
9772;DHT22;4925;52.588;13.370;2023-08-12T07:23:36;25.10;99.90
9772;DHT22;4925;52.588;13.370;2023-08-12T07:26:02;25.10;99.90
9772;DHT22;4925;52.588;13.370;2023-08-12T07:28:27;25.20;99.90
9772;DHT22;4925;52.588;13.370;2023-08-12T07:30:53;25.20;99.90
9772;DHT22;4925;52.588;13.370;2023-08-12T07:33:19;25.30;99.90
9772;DHT22;4925;52.588;13.370;2023-08-12T07:35:45;25.30;99.90
9772;DHT22;4925;52.588;13.370;2023-08-12T07:38:11;25.40;99.90
9772;DHT22;4925;52.588;13.370;2023-08-12T07:40:36;25.50;99.90
9772;DHT22;4925;52.588;13.370;2023-08-12T07:43:02;25.80;99.90
9772;DHT22;4925;52.588;13.370;2023-08-12T07:45:27;25.70;99.90
9772;DHT22;4925;52.588;13.370;2023-08-12T07:47:53;26.00;99.90
9772;DHT22;4925;52.588;13.370;2023-08-12T07:50:19;26.20;99.90
9772;DHT22;4925;52.588;13.370;2023-08-12T07:52:45;26.30;99.90
9772;DHT22;4925;52.588;13.370;2023-08-12T07:55:11;26.50;99.90
9772;DHT22;4925;52.588;13.370;2023-08-12T07:57:37;26.70;99.90
9772;DHT22;4925;52.588;13.370;2023-08-12T08:00:03;26.90;99.90
9772;DHT22;4925;52.588;13.370;2023-08-12T08:02:30;27.00;99.90
9772;DHT22;4925;52.588;13.370;2023-08-12T08:04:56;26.90;99.90
9772;DHT22;4925;52.588;13.370;2023-08-12T08:07:22;26.50;99.90
9772;DHT22;4925;52.588;13.370;2023-08-12T08:09:47;26.30;99.50
9772;DHT22;4925;52.588;13.370;2023-08-12T08:12:13;26.30;99.90
9772;DHT22;4925;52.588;13.370;2023-08-12T08:14:39;26.30;99.90
9772;DHT22;4925;52.588;13.370;2023-08-12T08:17:05;26.40;99.90
9772;DHT22;4925;52.588;13.370;2023-08-12T08:19:30;26.50;99.90
9772;DHT22;4925;52.588;13.370;2023-08-12T08:21:57;26.60;99.90
9772;DHT22;4925;52.588;13.370;2023-08-12T08:24:23;26.70;99.90
9772;DHT22;4925;52.588;13.370;2023-08-12T08:26:49;26.60;99.90
9772;DHT22;4925;52.588;13.370;2023-08-12T08:29:14;26.40;99.90
9772;DHT22;4925;52.588;13.370;2023-08-12T08:31:40;26.50;99.90
9772;DHT22;4925;52.588;13.370;2023-08-12T08:34:06;26.60;99.90
9772;DHT22;4925;52.588;13.370;2023-08-12T08:36:32;26.40;99.90
9772;DHT22;4925;52.588;13.370;2023-08-12T08:38:58;26.30;99.90
9772;DHT22;4925;52.588;13.370;2023-08-12T08:41:24;26.20;99.90
9772;DHT22;4925;52.588;13.370;2023-08-12T08:43:50;26.20;99.90
9772;DHT22;4925;52.588;13.370;2023-08-12T08:46:18;25.90;99.90
9772;DHT22;4925;52.588;13.370;2023-08-12T08:48:44;26.00;99.90
9772;DHT22;4925;52.588;13.370;2023-08-12T08:51:11;26.00;99.90
9772;DHT22;4925;52.588;13.370;2023-08-12T08:53:40;26.10;99.90
9772;DHT22;4925;52.588;13.370;2023-08-12T08:56:07;26.20;99.90
9772;DHT22;4925;52.588;13.370;2023-08-12T08:58:33;26.30;99.90
9772;DHT22;4925;52.588;13.370;2023-08-12T09:00:59;26.40;99.90
9772;DHT22;4925;52.588;13.370;2023-08-12T09:03:25;26.40;99.90
9772;DHT22;4925;52.588;13.370;2023-08-12T09:05:53;26.40;99.90
9772;DHT22;4925;52.588;13.370;2023-08-12T09:08:20;26.40;99.90
9772;DHT22;4925;52.588;13.370;2023-08-12T09:10:47;26.40;99.90
9772;DHT22;4925;52.588;13.370;2023-08-12T09:13:13;26.40;99.90
9772;DHT22;4925;52.588;13.370;2023-08-12T09:15:40;26.40;99.90
9772;DHT22;4925;52.588;13.370;2023-08-12T09:18:07;26.40;99.90
9772;DHT22;4925;52.588;13.370;2023-08-12T09:20:34;26.50;99.90
9772;DHT22;4925;52.588;13.370;2023-08-12T09:23:00;26.50;99.90
9772;DHT22;4925;52.588;13.370;2023-08-12T09:25:29;26.60;99.90
9772;DHT22;4925;52.588;13.370;2023-08-12T09:27:58;26.30;99.90
9772;DHT22;4925;52.588;13.370;2023-08-12T09:30:26;26.20;99.90
9772;DHT22;4925;52.588;13.370;2023-08-12T09:33:01;26.20;99.90
9772;DHT22;4925;52.588;13.370;2023-08-12T09:35:39;26.00;99.90
9772;DHT22;4925;52.588;13.370;2023-08-12T09:38:12;26.10;99.90
9772;DHT22;4925;52.588;13.370;2023-08-12T09:40:39;26.10;99.90
9772;DHT22;4925;52.588;13.370;2023-08-12T09:43:05;26.40;99.90
9772;DHT22;4925;52.588;13.370;2023-08-12T09:45:31;26.50;99.90
9772;DHT22;4925;52.588;13.370;2023-08-12T09:47:58;26.50;99.90
9772;DHT22;4925;52.588;13.370;2023-08-12T09:50:25;26.60;99.90
9772;DHT22;4925;52.588;13.370;2023-08-12T09:52:51;26.80;99.90
9772;DHT22;4925;52.588;13.370;2023-08-12T09:55:19;26.90;99.90
9772;DHT22;4925;52.588;13.370;2023-08-12T09:57:48;26.40;99.90
9772;DHT22;4925;52.588;13.370;2023-08-12T10:00:16;26.60;99.90
9772;DHT22;4925;52.588;13.370;2023-08-12T10:02:44;26.90;99.90
9772;DHT22;4925;52.588;13.370;2023-08-12T10:05:13;27.00;99.90
9772;DHT22;4925;52.588;13.370;2023-08-12T10:07:40;26.90;99.90
9772;DHT22;4925;52.588;13.370;2023-08-12T10:10:06;27.00;99.90
9772;DHT22;4925;52.588;13.370;2023-08-12T10:12:33;26.90;99.90
9772;DHT22;4925;52.588;13.370;2023-08-12T10:15:00;26.90;99.90
9772;DHT22;4925;52.588;13.370;2023-08-12T10:17:26;26.90;99.90
9772;DHT22;4925;52.588;13.370;2023-08-12T10:19:56;26.90;99.90
9772;DHT22;4925;52.588;13.370;2023-08-12T10:22:25;26.80;99.90
9772;DHT22;4925;52.588;13.370;2023-08-12T10:24:51;27.00;99.90
9772;DHT22;4925;52.588;13.370;2023-08-12T10:27:18;27.00;99.90
9772;DHT22;4925;52.588;13.370;2023-08-12T10:29:45;26.90;99.90
9772;DHT22;4925;52.588;13.370;2023-08-12T10:32:11;27.10;99.90
9772;DHT22;4925;52.588;13.370;2023-08-12T10:34:38;27.10;99.90
9772;DHT22;4925;52.588;13.370;2023-08-12T10:37:04;27.40;99.90
9772;DHT22;4925;52.588;13.370;2023-08-12T10:39:33;27.50;99.90
9772;DHT22;4925;52.588;13.370;2023-08-12T10:42:00;27.60;99.90
9772;DHT22;4925;52.588;13.370;2023-08-12T10:45:03;27.70;99.90
9772;DHT22;4925;52.588;13.370;2023-08-12T10:47:19;27.80;99.90
9772;DHT22;4925;52.588;13.370;2023-08-12T10:49:49;28.00;99.90
9772;DHT22;4925;52.588;13.370;2023-08-12T10:52:29;28.10;99.90
9772;DHT22;4925;52.588;13.370;2023-08-12T10:55:15;28.00;99.90
9772;DHT22;4925;52.588;13.370;2023-08-12T10:57:41;27.90;99.90
9772;DHT22;4925;52.588;13.370;2023-08-12T11:00:13;28.00;99.90
9772;DHT22;4925;52.588;13.370;2023-08-12T11:02:39;27.90;99.90
9772;DHT22;4925;52.588;13.370;2023-08-12T11:05:10;27.80;99.90
9772;DHT22;4925;52.588;13.370;2023-08-12T11:12:35;27.90;99.90
9772;DHT22;4925;52.588;13.370;2023-08-12T11:15:03;27.60;99.90
9772;DHT22;4925;52.588;13.370;2023-08-12T11:17:34;27.40;99.90
9772;DHT22;4925;52.588;13.370;2023-08-12T11:20:00;27.30;99.90
9772;DHT22;4925;52.588;13.370;2023-08-12T11:22:27;27.50;99.90
9772;DHT22;4925;52.588;13.370;2023-08-12T11:24:52;27.40;99.90
9772;DHT22;4925;52.588;13.370;2023-08-12T11:27:18;27.40;99.90
9772;DHT22;4925;52.588;13.370;2023-08-12T11:29:44;27.60;99.90
9772;DHT22;4925;52.588;13.370;2023-08-12T11:32:10;27.60;99.90
9772;DHT22;4925;52.588;13.370;2023-08-12T11:34:37;27.70;99.90
9772;DHT22;4925;52.588;13.370;2023-08-12T11:37:03;27.90;99.90
9772;DHT22;4925;52.588;13.370;2023-08-12T11:39:29;27.90;99.90
9772;DHT22;4925;52.588;13.370;2023-08-12T11:41:55;27.90;99.90
9772;DHT22;4925;52.588;13.370;2023-08-12T11:44:22;27.90;99.90
9772;DHT22;4925;52.588;13.370;2023-08-12T11:46:49;27.80;99.90
9772;DHT22;4925;52.588;13.370;2023-08-12T11:49:14;27.70;99.90
9772;DHT22;4925;52.588;13.370;2023-08-12T11:51:44;27.40;99.90
9772;DHT22;4925;52.588;13.370;2023-08-12T11:54:12;27.30;99.90
9772;DHT22;4925;52.588;13.370;2023-08-12T11:56:38;27.00;99.90
9772;DHT22;4925;52.588;13.370;2023-08-12T11:59:04;26.70;99.90
9772;DHT22;4925;52.588;13.370;2023-08-12T12:01:31;26.60;99.90
9772;DHT22;4925;52.588;13.370;2023-08-12T12:03:59;26.60;99.90
9772;DHT22;4925;52.588;13.370;2023-08-12T12:06:35;26.60;99.90
9772;DHT22;4925;52.588;13.370;2023-08-12T12:09:08;26.70;99.90
9772;DHT22;4925;52.588;13.370;2023-08-12T12:11:38;26.70;99.90
9772;DHT22;4925;52.588;13.370;2023-08-12T12:14:06;26.60;99.90
9772;DHT22;4925;52.588;13.370;2023-08-12T12:19:04;26.60;99.90
9772;DHT22;4925;52.588;13.370;2023-08-12T12:21:38;26.50;99.90
9772;DHT22;4925;52.588;13.370;2023-08-12T12:24:05;26.60;99.90
9772;DHT22;4925;52.588;13.370;2023-08-12T12:26:30;26.70;99.90
9772;DHT22;4925;52.588;13.370;2023-08-12T12:28:56;26.70;99.90
9772;DHT22;4925;52.588;13.370;2023-08-12T12:31:22;26.50;99.90
9772;DHT22;4925;52.588;13.370;2023-08-12T12:33:47;26.50;99.90
9772;DHT22;4925;52.588;13.370;2023-08-12T12:36:13;26.70;99.90
9772;DHT22;4925;52.588;13.370;2023-08-12T12:38:38;26.50;99.90
9772;DHT22;4925;52.588;13.370;2023-08-12T12:41:04;26.40;99.90
9772;DHT22;4925;52.588;13.370;2023-08-12T12:43:30;26.40;99.90
9772;DHT22;4925;52.588;13.370;2023-08-12T12:45:55;26.50;99.90
9772;DHT22;4925;52.588;13.370;2023-08-12T12:48:22;26.70;99.90
9772;DHT22;4925;52.588;13.370;2023-08-12T12:50:48;26.60;99.90
9772;DHT22;4925;52.588;13.370;2023-08-12T12:53:13;26.70;99.90
9772;DHT22;4925;52.588;13.370;2023-08-12T12:55:39;27.00;99.90
9772;DHT22;4925;52.588;13.370;2023-08-12T12:58:05;27.10;99.90
9772;DHT22;4925;52.588;13.370;2023-08-12T13:00:30;27.20;99.90
9772;DHT22;4925;52.588;13.370;2023-08-12T13:02:56;27.40;99.90
9772;DHT22;4925;52.588;13.370;2023-08-12T13:05:22;27.40;99.90
9772;DHT22;4925;52.588;13.370;2023-08-12T13:07:47;27.50;99.90
9772;DHT22;4925;52.588;13.370;2023-08-12T13:10:13;27.70;99.90
9772;DHT22;4925;52.588;13.370;2023-08-12T13:12:39;27.90;99.90
9772;DHT22;4925;52.588;13.370;2023-08-12T13:15:05;28.00;99.90
9772;DHT22;4925;52.588;13.370;2023-08-12T13:17:32;28.10;99.90
9772;DHT22;4925;52.588;13.370;2023-08-12T13:19:58;28.40;99.90
9772;DHT22;4925;52.588;13.370;2023-08-12T13:22:23;28.50;99.90
9772;DHT22;4925;52.588;13.370;2023-08-12T13:24:49;28.80;99.90
9772;DHT22;4925;52.588;13.370;2023-08-12T13:27:15;28.90;99.90
9772;DHT22;4925;52.588;13.370;2023-08-12T13:29:42;29.20;99.90
9772;DHT22;4925;52.588;13.370;2023-08-12T13:32:08;29.10;99.90
9772;DHT22;4925;52.588;13.370;2023-08-12T13:34:34;28.90;99.90
9772;DHT22;4925;52.588;13.370;2023-08-12T13:36:59;28.80;99.90
9772;DHT22;4925;52.588;13.370;2023-08-12T13:39:25;28.80;99.90
9772;DHT22;4925;52.588;13.370;2023-08-12T13:41:51;28.80;99.90
9772;DHT22;4925;52.588;13.370;2023-08-12T13:44:17;28.80;99.90
9772;DHT22;4925;52.588;13.370;2023-08-12T13:46:42;28.80;99.90
9772;DHT22;4925;52.588;13.370;2023-08-12T13:49:08;28.80;99.90
9772;DHT22;4925;52.588;13.370;2023-08-12T13:51:34;28.90;99.90
9772;DHT22;4925;52.588;13.370;2023-08-12T13:53:59;29.10;99.90
9772;DHT22;4925;52.588;13.370;2023-08-12T13:56:25;28.80;99.90
9772;DHT22;4925;52.588;13.370;2023-08-12T13:58:51;28.90;99.90
9772;DHT22;4925;52.588;13.370;2023-08-12T14:01:16;29.10;99.90
9772;DHT22;4925;52.588;13.370;2023-08-12T14:03:42;29.00;99.90
9772;DHT22;4925;52.588;13.370;2023-08-12T14:06:08;29.40;99.90
9772;DHT22;4925;52.588;13.370;2023-08-12T14:08:33;29.30;99.90
9772;DHT22;4925;52.588;13.370;2023-08-12T14:10:59;29.40;99.90
9772;DHT22;4925;52.588;13.370;2023-08-12T14:13:25;29.30;99.90
9772;DHT22;4925;52.588;13.370;2023-08-12T14:15:52;29.20;99.90
9772;DHT22;4925;52.588;13.370;2023-08-12T14:18:18;29.40;99.90
9772;DHT22;4925;52.588;13.370;2023-08-12T14:20:44;29.60;99.90
9772;DHT22;4925;52.588;13.370;2023-08-12T14:23:09;29.30;99.90
9772;DHT22;4925;52.588;13.370;2023-08-12T14:25:35;29.20;99.50
9772;DHT22;4925;52.588;13.370;2023-08-12T14:28:01;29.10;98.70
9772;DHT22;4925;52.588;13.370;2023-08-12T14:30:27;29.10;98.70
9772;DHT22;4925;52.588;13.370;2023-08-12T14:32:53;29.10;98.80
9772;DHT22;4925;52.588;13.370;2023-08-12T14:35:18;29.20;98.80
9772;DHT22;4925;52.588;13.370;2023-08-12T14:37:44;29.40;98.30
9772;DHT22;4925;52.588;13.370;2023-08-12T14:40:10;29.50;99.00
9772;DHT22;4925;52.588;13.370;2023-08-12T14:42:36;29.60;96.80
9772;DHT22;4925;52.588;13.370;2023-08-12T14:45:02;29.60;97.20
9772;DHT22;4925;52.588;13.370;2023-08-12T14:47:28;29.50;97.00
9772;DHT22;4925;52.588;13.370;2023-08-12T14:49:53;29.40;97.30
9772;DHT22;4925;52.588;13.370;2023-08-12T14:52:20;29.20;97.50
9772;DHT22;4925;52.588;13.370;2023-08-12T14:54:48;29.30;98.00
9772;DHT22;4925;52.588;13.370;2023-08-12T14:57:14;29.10;97.90
9772;DHT22;4925;52.588;13.370;2023-08-12T14:59:40;29.20;97.80
9772;DHT22;4925;52.588;13.370;2023-08-12T15:02:06;29.50;97.90
9772;DHT22;4925;52.588;13.370;2023-08-12T15:04:33;29.60;97.70
9772;DHT22;4925;52.588;13.370;2023-08-12T15:06:58;29.70;97.30
9772;DHT22;4925;52.588;13.370;2023-08-12T15:09:24;29.80;97.10
9772;DHT22;4925;52.588;13.370;2023-08-12T15:11:50;29.80;97.10
9772;DHT22;4925;52.588;13.370;2023-08-12T15:14:17;29.60;96.00
9772;DHT22;4925;52.588;13.370;2023-08-12T15:16:43;29.40;96.90
9772;DHT22;4925;52.588;13.370;2023-08-12T15:19:08;29.40;97.00
9772;DHT22;4925;52.588;13.370;2023-08-12T15:21:34;29.20;97.60
9772;DHT22;4925;52.588;13.370;2023-08-12T15:24:00;29.30;97.70
9772;DHT22;4925;52.588;13.370;2023-08-12T15:26:25;29.10;97.90
9772;DHT22;4925;52.588;13.370;2023-08-12T15:28:51;29.30;98.10
9772;DHT22;4925;52.588;13.370;2023-08-12T15:31:17;29.40;98.10
9772;DHT22;4925;52.588;13.370;2023-08-12T15:33:42;29.30;97.80
9772;DHT22;4925;52.588;13.370;2023-08-12T15:36:08;29.50;98.20
9772;DHT22;4925;52.588;13.370;2023-08-12T15:38:34;29.60;98.40
9772;DHT22;4925;52.588;13.370;2023-08-12T15:41:00;29.60;97.90
9772;DHT22;4925;52.588;13.370;2023-08-12T15:43:26;29.40;97.70
9772;DHT22;4925;52.588;13.370;2023-08-12T15:45:52;29.40;97.90
9772;DHT22;4925;52.588;13.370;2023-08-12T15:48:18;29.40;97.90
9772;DHT22;4925;52.588;13.370;2023-08-12T15:50:45;29.40;98.10
9772;DHT22;4925;52.588;13.370;2023-08-12T15:53:11;29.70;97.50
9772;DHT22;4925;52.588;13.370;2023-08-12T15:55:36;29.60;96.50